createdAt,value
2017-04-21T00:00:07.491Z,22.36
2017-04-21T00:01:16.904Z,22.35
2017-04-21T00:02:25.678Z,22.38
2017-04-21T00:03:35.077Z,22.39
2017-04-21T00:04:44.794Z,22.41
2017-04-21T00:05:53.576Z,22.35
2017-04-21T00:07:02.354Z,22.38
2017-04-21T00:08:11.708Z,22.35
2017-04-21T00:09:21.670Z,22.44
2017-04-21T00:10:31.054Z,22.41
2017-04-21T00:11:39.833Z,22.36
2017-04-21T00:12:49.247Z,22.33
2017-04-21T00:13:58.639Z,22.38
2017-04-21T00:15:07.423Z,22.29
2017-04-21T00:16:16.832Z,22.3
2017-04-21T00:17:25.909Z,22.36
2017-04-21T00:18:35.609Z,22.3
2017-04-21T00:19:45.337Z,22.28
2017-04-21T00:20:55.190Z,22.33
2017-04-21T00:22:04.652Z,22.35
2017-04-21T00:23:13.982Z,22.3
2017-04-21T00:24:23.239Z,22.29
2017-04-21T00:25:32.026Z,22.32
2017-04-21T00:26:40.763Z,22.29
2017-04-21T00:27:49.516Z,22.26
2017-04-21T00:28:58.612Z,22.28
2017-04-21T00:30:08.001Z,22.29
2017-04-21T00:31:17.083Z,22.28
2017-04-21T00:32:26.165Z,22.29
2017-04-21T00:33:35.239Z,22.26
2017-04-21T00:34:44.937Z,22.28
2017-04-21T00:35:54.631Z,22.29
2017-04-21T00:37:03.417Z,22.3
2017-04-21T00:38:12.829Z,22.25
2017-04-21T00:39:21.930Z,22.26
2017-04-21T00:40:31.012Z,22.28
2017-04-21T00:41:40.005Z,22.23
2017-04-21T00:42:49.064Z,22.17
2017-04-21T00:43:58.429Z,22.26
2017-04-21T00:45:07.206Z,22.18
2017-04-21T00:46:16.594Z,22.22
2017-04-21T00:47:25.691Z,22.18
2017-04-21T00:48:34.468Z,22.18
2017-04-21T00:49:43.521Z,22.15
2017-04-21T00:50:52.609Z,22.17
2017-04-21T00:52:01.381Z,22.2
2017-04-21T00:53:10.466Z,22.17
2017-04-21T00:54:20.152Z,22.25
2017-04-21T00:55:29.506Z,22.28
2017-04-21T00:56:38.870Z,22.14
2017-04-21T00:57:48.561Z,22.14
2017-04-21T00:58:57.955Z,22.17
2017-04-21T01:00:07.051Z,22.17
2017-04-21T01:01:16.157Z,22.17
2017-04-21T01:02:25.576Z,22.17
2017-04-21T01:03:34.666Z,22.15
2017-04-21T01:04:44.323Z,22.2
2017-04-21T01:05:53.074Z,22.18
2017-04-21T01:07:02.160Z,22.18
2017-04-21T01:08:11.249Z,22.15
2017-04-21T01:09:20.603Z,22.15
2017-04-21T01:10:29.357Z,22.18
2017-04-21T01:11:38.453Z,22.11
2017-04-21T01:12:48.469Z,22.18
2017-04-21T01:13:58.173Z,22.13
2017-04-21T01:15:06.959Z,22.04
2017-04-21T01:16:16.045Z,22.08
2017-04-21T01:17:25.434Z,22.1
2017-04-21T01:18:34.536Z,22.15
2017-04-21T01:19:43.319Z,22.14
2017-04-21T01:20:52.095Z,22.1
2017-04-21T01:22:01.167Z,22.13
2017-04-21T01:23:10.243Z,22.08
2017-04-21T01:24:19.849Z,22.07
2017-04-21T01:25:28.630Z,22.08
2017-04-21T01:26:37.715Z,22.04
2017-04-21T01:27:47.111Z,22.06
2017-04-21T01:28:56.817Z,22.1
2017-04-21T01:30:05.907Z,22.11
2017-04-21T01:31:14.678Z,22.06
2017-04-21T01:32:23.762Z,22.06
2017-04-21T01:33:33.210Z,22.08
2017-04-21T01:34:42.599Z,22.07
2017-04-21T01:35:51.392Z,22.08
2017-04-21T01:37:00.256Z,22.04
2017-04-21T01:38:09.926Z,22.08
2017-04-21T01:39:18.954Z,22.08
2017-04-21T01:40:28.002Z,21.96
2017-04-21T01:41:36.748Z,21.99
2017-04-21T01:42:46.134Z,22.02
2017-04-21T01:43:55.184Z,22
2017-04-21T01:45:04.845Z,22.07
2017-04-21T01:46:13.628Z,21.99
2017-04-21T01:47:22.717Z,22
2017-04-21T01:48:31.494Z,21.96
2017-04-21T01:49:40.568Z,22
2017-04-21T01:50:49.650Z,21.96
2017-04-21T01:51:58.756Z,22.02
2017-04-21T01:53:07.532Z,21.98
2017-04-21T01:54:16.618Z,22.02
2017-04-21T01:55:26.012Z,21.99
2017-04-21T01:56:34.984Z,21.98
2017-04-21T01:57:44.377Z,21.98
2017-04-21T01:58:54.075Z,21.89
2017-04-21T02:00:03.161Z,21.96
2017-04-21T02:01:11.945Z,21.91
2017-04-21T02:02:20.732Z,21.93
2017-04-21T02:03:29.808Z,21.98
2017-04-21T02:04:39.198Z,21.95
2017-04-21T02:05:48.468Z,21.92
2017-04-21T02:06:57.224Z,21.93
2017-04-21T02:08:06.008Z,21.89
2017-04-21T02:09:14.782Z,21.93
2017-04-21T02:10:24.480Z,21.93
2017-04-21T02:11:33.564Z,21.89
2017-04-21T02:12:42.917Z,21.92
2017-04-21T02:13:52.283Z,21.93
2017-04-21T02:15:01.664Z,21.91
2017-04-21T02:16:10.760Z,21.82
2017-04-21T02:17:19.804Z,21.96
2017-04-21T02:18:29.534Z,21.89
2017-04-21T02:19:38.917Z,21.92
2017-04-21T02:20:48.007Z,21.82
2017-04-21T02:21:57.090Z,21.89
2017-04-21T02:23:06.489Z,21.91
2017-04-21T02:24:15.898Z,21.83
2017-04-21T02:25:25.287Z,21.92
2017-04-21T02:26:34.633Z,21.91
2017-04-21T02:27:43.700Z,21.89
2017-04-21T02:28:53.085Z,21.83
2017-04-21T02:30:02.481Z,21.91
2017-04-21T02:31:11.248Z,21.88
2017-04-21T02:32:20.044Z,21.89
2017-04-21T02:33:29.390Z,21.89
2017-04-21T02:34:39.043Z,21.88
2017-04-21T02:35:47.801Z,21.92
2017-04-21T02:36:56.580Z,21.85
2017-04-21T02:38:05.694Z,21.85
2017-04-21T02:39:14.779Z,21.79
2017-04-21T02:40:24.135Z,21.85
2017-04-21T02:41:33.195Z,21.88
2017-04-21T02:42:41.983Z,21.83
2017-04-21T02:43:51.171Z,21.88
2017-04-21T02:45:00.559Z,21.83
2017-04-21T02:46:09.878Z,21.76
2017-04-21T02:47:19.024Z,21.69
2017-04-21T02:48:27.986Z,21.8
2017-04-21T02:49:37.223Z,21.69
2017-04-21T02:50:46.082Z,21.77
2017-04-21T02:51:54.862Z,21.69
2017-04-21T02:53:03.646Z,21.8
2017-04-21T02:54:13.032Z,21.72
2017-04-21T02:55:22.066Z,21.76
2017-04-21T02:56:31.114Z,21.79
2017-04-21T02:57:40.155Z,21.79
2017-04-21T02:58:49.209Z,21.79
2017-04-21T02:59:58.283Z,21.77
2017-04-21T03:01:07.650Z,21.75
2017-04-21T03:02:16.414Z,21.73
2017-04-21T03:03:25.786Z,21.73
2017-04-21T03:04:34.556Z,21.72
2017-04-21T03:05:43.637Z,21.67
2017-04-21T03:06:52.699Z,21.72
2017-04-21T03:08:01.777Z,21.77
2017-04-21T03:09:11.764Z,21.69
2017-04-21T03:10:20.529Z,21.67
2017-04-21T03:11:29.258Z,21.69
2017-04-21T03:12:38.889Z,21.72
2017-04-21T03:13:47.939Z,21.7
2017-04-21T03:14:56.704Z,21.69
2017-04-21T03:16:05.779Z,21.77
2017-04-21T03:17:14.872Z,21.66
2017-04-21T03:18:24.561Z,21.73
2017-04-21T03:19:33.326Z,21.69
2017-04-21T03:20:42.397Z,21.75
2017-04-21T03:21:51.169Z,21.72
2017-04-21T03:23:00.252Z,21.69
2017-04-21T03:24:09.017Z,21.73
2017-04-21T03:25:17.795Z,21.69
2017-04-21T03:26:26.566Z,21.82
2017-04-21T03:27:35.342Z,21.73
2017-04-21T03:28:44.721Z,21.69
2017-04-21T03:29:54.411Z,21.66
2017-04-21T03:31:03.483Z,21.7
2017-04-21T03:32:12.564Z,21.73
2017-04-21T03:33:22.239Z,21.67
2017-04-21T03:34:31.308Z,21.73
2017-04-21T03:35:40.071Z,21.73
2017-04-21T03:36:48.850Z,21.69
2017-04-21T03:37:58.513Z,21.67
2017-04-21T03:39:07.289Z,21.6
2017-04-21T03:40:16.658Z,21.66
2017-04-21T03:41:25.689Z,21.72
2017-04-21T03:42:34.393Z,21.72
2017-04-21T03:43:44.346Z,21.69
2017-04-21T03:44:53.116Z,21.62
2017-04-21T03:46:02.489Z,21.55
2017-04-21T03:47:12.174Z,21.64
2017-04-21T03:48:20.938Z,21.69
2017-04-21T03:49:30.259Z,21.62
2017-04-21T03:50:39.628Z,21.6
2017-04-21T03:51:48.388Z,21.72
2017-04-21T03:52:57.757Z,21.64
2017-04-21T03:54:06.479Z,21.69
2017-04-21T03:55:15.838Z,21.66
2017-04-21T03:56:25.023Z,21.69
2017-04-21T03:57:33.879Z,21.66
2017-04-21T03:58:43.204Z,21.64
2017-04-21T03:59:52.395Z,21.72
2017-04-21T04:01:01.472Z,21.67
2017-04-21T04:02:10.336Z,21.72
2017-04-21T04:03:19.390Z,21.7
2017-04-21T04:04:28.772Z,21.72
2017-04-21T04:05:37.538Z,21.77
2017-04-21T04:06:46.613Z,21.75
2017-04-21T04:07:55.679Z,21.77
2017-04-21T04:09:05.663Z,21.79
2017-04-21T04:10:15.047Z,21.69
2017-04-21T04:11:23.812Z,21.72
2017-04-21T04:12:32.930Z,21.7
2017-04-21T04:13:42.003Z,21.66
2017-04-21T04:14:51.693Z,21.76
2017-04-21T04:16:01.345Z,21.75
2017-04-21T04:17:10.075Z,21.73
2017-04-21T04:18:18.781Z,21.72
2017-04-21T04:19:28.095Z,21.73
2017-04-21T04:20:36.834Z,21.72
2017-04-21T04:21:45.907Z,21.7
2017-04-21T04:22:55.248Z,21.7
2017-04-21T04:24:03.994Z,21.79
2017-04-21T04:25:13.016Z,21.83
2017-04-21T04:26:22.025Z,21.88
2017-04-21T04:27:31.169Z,21.76
2017-04-21T04:28:40.233Z,21.83
2017-04-21T04:29:48.997Z,21.93
2017-04-21T04:30:57.734Z,21.93
2017-04-21T04:32:06.758Z,21.92
2017-04-21T04:33:15.498Z,21.89
2017-04-21T04:34:24.578Z,21.89
2017-04-21T04:35:33.342Z,21.82
2017-04-21T04:36:42.080Z,21.85
2017-04-21T04:37:50.778Z,21.92
2017-04-21T04:38:59.522Z,21.89
2017-04-21T04:40:08.898Z,21.93
2017-04-21T04:41:17.978Z,21.89
2017-04-21T04:42:26.718Z,21.98
2017-04-21T04:43:35.459Z,21.95
2017-04-21T04:44:45.753Z,21.89
2017-04-21T04:45:54.518Z,21.92
2017-04-21T04:47:03.287Z,21.96
2017-04-21T04:48:12.326Z,21.98
2017-04-21T04:49:22.291Z,21.95
2017-04-21T04:50:31.413Z,21.96
2017-04-21T04:51:40.789Z,21.98
2017-04-21T04:52:49.850Z,21.99
2017-04-21T04:53:59.220Z,21.99
2017-04-21T04:55:08.597Z,21.96
2017-04-21T04:56:17.949Z,22.07
2017-04-21T04:57:27.018Z,22.06
2017-04-21T04:58:36.095Z,22.06
2017-04-21T04:59:44.878Z,22.11
2017-04-21T05:00:54.202Z,22.13
2017-04-21T05:02:02.985Z,22.15
2017-04-21T05:03:11.956Z,22.15
2017-04-21T05:04:21.019Z,22.17
2017-04-21T05:05:30.207Z,22.11
2017-04-21T05:06:40.062Z,22.15
2017-04-21T05:07:50.110Z,22.23
2017-04-21T05:08:59.563Z,22.15
2017-04-21T05:10:09.033Z,22.15
2017-04-21T05:11:18.102Z,22.18
2017-04-21T05:12:27.789Z,22.17
2017-04-21T05:13:37.170Z,22.2
2017-04-21T05:14:45.899Z,22.2
2017-04-21T05:15:55.242Z,22.15
2017-04-21T05:17:04.007Z,22.17
2017-04-21T05:18:13.078Z,22.29
2017-04-21T05:19:22.145Z,22.22
2017-04-21T05:20:30.907Z,22.25
2017-04-21T05:21:39.975Z,22.26
2017-04-21T05:22:49.006Z,22.25
2017-04-21T05:23:58.666Z,22.25
2017-04-21T05:25:07.740Z,22.25
2017-04-21T05:26:16.771Z,22.2
2017-04-21T05:27:26.147Z,22.32
2017-04-21T05:28:34.913Z,22.25
2017-04-21T05:29:43.679Z,22.3
2017-04-21T05:30:52.756Z,22.38
2017-04-21T05:32:01.516Z,22.35
2017-04-21T05:33:10.900Z,22.39
2017-04-21T05:34:20.544Z,22.35
2017-04-21T05:35:29.290Z,22.29
2017-04-21T05:36:38.367Z,22.3
2017-04-21T05:37:47.647Z,22.44
2017-04-21T05:38:56.727Z,22.35
2017-04-21T05:40:05.791Z,22.3
2017-04-21T05:41:14.829Z,22.36
2017-04-21T05:42:23.874Z,22.32
2017-04-21T05:43:33.148Z,22.39
2017-04-21T05:44:41.923Z,22.35
2017-04-21T05:45:50.998Z,22.44
2017-04-21T05:46:59.759Z,22.44
2017-04-21T05:48:08.524Z,22.47
2017-04-21T05:49:17.574Z,22.41
2017-04-21T05:50:26.911Z,22.45
2017-04-21T05:51:35.918Z,22.48
2017-04-21T05:52:44.664Z,22.44
2017-04-21T05:53:54.041Z,22.47
2017-04-21T05:55:02.817Z,22.5
2017-04-21T05:56:11.848Z,22.51
2017-04-21T05:57:20.896Z,22.53
2017-04-21T05:58:29.665Z,22.53
2017-04-21T05:59:38.720Z,22.57
2017-04-21T06:00:48.096Z,22.54
2017-04-21T06:01:57.179Z,22.57
2017-04-21T06:03:06.824Z,22.54
2017-04-21T06:04:15.571Z,22.54
2017-04-21T06:05:25.261Z,22.63
2017-04-21T06:06:34.025Z,22.63
2017-04-21T06:07:43.107Z,22.68
2017-04-21T06:08:52.793Z,22.63
2017-04-21T06:10:02.485Z,22.68
2017-04-21T06:11:11.252Z,22.68
2017-04-21T06:12:20.628Z,22.65
2017-04-21T06:13:29.683Z,22.66
2017-04-21T06:14:38.729Z,22.66
2017-04-21T06:15:48.112Z,22.62
2017-04-21T06:16:56.878Z,22.63
2017-04-21T06:18:05.643Z,22.63
2017-04-21T06:19:15.325Z,22.7
2017-04-21T06:20:24.184Z,22.73
2017-04-21T06:21:33.258Z,22.73
2017-04-21T06:22:43.015Z,22.7
2017-04-21T06:23:52.700Z,22.68
2017-04-21T06:25:02.612Z,22.76
2017-04-21T06:26:11.951Z,22.73
2017-04-21T06:27:20.695Z,22.7
2017-04-21T06:28:30.376Z,22.69
2017-04-21T06:29:39.149Z,22.8
2017-04-21T06:30:48.532Z,22.73
2017-04-21T06:31:57.301Z,22.75
2017-04-21T06:33:06.381Z,22.73
2017-04-21T06:34:15.112Z,22.7
2017-04-21T06:35:24.768Z,22.72
2017-04-21T06:36:34.499Z,22.68
2017-04-21T06:37:43.596Z,22.69
2017-04-21T06:38:53.274Z,22.81
2017-04-21T06:40:02.958Z,22.72
2017-04-21T06:41:12.028Z,22.78
2017-04-21T06:42:20.789Z,22.76
2017-04-21T06:43:29.619Z,22.76
2017-04-21T06:44:38.386Z,22.81
2017-04-21T06:45:47.121Z,22.9
2017-04-21T06:46:55.863Z,22.88
2017-04-21T06:48:05.199Z,22.78
2017-04-21T06:49:13.947Z,22.91
2017-04-21T06:50:22.721Z,22.83
2017-04-21T06:51:31.488Z,22.9
2017-04-21T06:52:40.255Z,22.87
2017-04-21T06:53:49.325Z,22.88
2017-04-21T06:54:58.700Z,22.85
2017-04-21T06:56:07.785Z,22.84
2017-04-21T06:57:16.532Z,22.99
2017-04-21T06:58:25.609Z,22.93
2017-04-21T06:59:34.788Z,22.96
2017-04-21T07:00:44.159Z,22.99
2017-04-21T07:01:53.249Z,22.94
2017-04-21T07:03:02.640Z,22.93
2017-04-21T07:04:12.318Z,22.94
2017-04-21T07:05:21.351Z,22.98
2017-04-21T07:06:30.105Z,22.96
2017-04-21T07:07:39.187Z,22.93
2017-04-21T07:08:48.583Z,22.94
2017-04-21T07:09:58.236Z,22.91
2017-04-21T07:11:07.916Z,22.98
2017-04-21T07:12:17.296Z,22.94
2017-04-21T07:13:26.677Z,22.98
2017-04-21T07:14:35.759Z,22.98
2017-04-21T07:15:44.531Z,22.93
2017-04-21T07:16:53.296Z,22.96
2017-04-21T07:18:02.378Z,22.98
2017-04-21T07:19:11.453Z,22.99
2017-04-21T07:20:20.565Z,23.05
2017-04-21T07:21:29.307Z,22.98
2017-04-21T07:22:38.380Z,23
2017-04-21T07:23:47.837Z,23.03
2017-04-21T07:24:57.372Z,23
2017-04-21T07:26:06.931Z,22.98
2017-04-21T07:27:16.167Z,23.02
2017-04-21T07:28:26.172Z,22.99
2017-04-21T07:29:34.946Z,23.02
2017-04-21T07:30:44.032Z,23.02
2017-04-21T07:31:52.804Z,22.98
2017-04-21T07:33:01.568Z,23.03
2017-04-21T07:34:10.652Z,23.06
2017-04-21T07:35:19.415Z,23
2017-04-21T07:36:28.428Z,23
2017-04-21T07:38:58.480Z,23.1
2017-04-21T07:40:07.269Z,23.08
2017-04-21T07:41:16.186Z,23.03
2017-04-21T07:42:25.252Z,23.09
2017-04-21T07:43:34.371Z,23.09
2017-04-21T07:44:43.701Z,22.96
2017-04-21T07:45:52.437Z,23.03
2017-04-21T07:47:01.513Z,23.03
2017-04-21T07:48:10.578Z,23.08
2017-04-21T07:49:19.614Z,23.08
2017-04-21T07:50:28.977Z,23.05
2017-04-21T07:51:37.731Z,23.08
2017-04-21T07:52:46.804Z,23.09
2017-04-21T07:53:55.881Z,23.13
2017-04-21T07:55:05.261Z,23.1
2017-04-21T07:56:14.935Z,23.12
2017-04-21T07:57:23.986Z,23.1
2017-04-21T07:58:33.551Z,23.15
2017-04-21T07:59:42.643Z,23.18
2017-04-21T08:01:19.881Z,23.2
2017-04-21T08:02:28.951Z,23.21
2017-04-21T08:03:37.681Z,23.24
2017-04-21T08:04:47.026Z,23.23
2017-04-21T08:05:56.131Z,23.24
2017-04-21T08:07:04.901Z,23.24
2017-04-21T08:08:13.963Z,23.24
2017-04-21T08:09:22.765Z,23.2
2017-04-21T08:10:31.558Z,23.27
2017-04-21T08:11:40.315Z,23.28
2017-04-21T08:12:49.082Z,23.24
2017-04-21T08:13:58.784Z,23.28
2017-04-21T08:15:07.555Z,23.27
2017-04-21T08:16:16.325Z,23.4
2017-04-21T08:17:25.394Z,23.32
2017-04-21T08:18:34.153Z,23.34
2017-04-21T08:19:43.533Z,23.4
2017-04-21T08:20:52.864Z,23.32
2017-04-21T08:22:01.907Z,23.27
2017-04-21T08:23:10.983Z,23.39
2017-04-21T08:24:20.066Z,23.34
2017-04-21T08:25:28.999Z,23.37
2017-04-21T08:26:38.036Z,23.41
2017-04-21T08:27:47.113Z,23.39
2017-04-21T08:28:56.461Z,23.41
2017-04-21T08:30:05.507Z,23.39
2017-04-21T08:31:14.276Z,23.43
2017-04-21T08:32:23.369Z,23.39
2017-04-21T08:33:32.140Z,23.48
2017-04-21T08:34:41.823Z,23.46
2017-04-21T08:35:50.602Z,23.41
2017-04-21T08:36:59.363Z,23.46
2017-04-21T08:38:08.136Z,23.41
2017-04-21T08:39:18.121Z,23.43
2017-04-21T08:40:26.892Z,23.43
2017-04-21T08:41:35.667Z,23.51
2017-04-21T08:42:44.419Z,23.48
2017-04-21T08:43:53.448Z,23.4
2017-04-21T08:45:03.097Z,23.47
2017-04-21T08:46:11.797Z,23.51
2017-04-21T08:47:20.803Z,23.51
2017-04-21T08:48:29.547Z,23.41
2017-04-21T08:49:38.316Z,23.37
2017-04-21T08:50:47.397Z,23.4
2017-04-21T08:51:56.538Z,23.46
2017-04-21T08:53:05.605Z,23.51
2017-04-21T08:54:14.634Z,23.51
2017-04-21T08:55:23.700Z,23.41
2017-04-21T08:56:33.065Z,23.44
2017-04-21T08:57:42.140Z,23.46
2017-04-21T08:58:51.533Z,23.47
2017-04-21T09:00:00.618Z,23.48
2017-04-21T09:01:09.994Z,23.44
2017-04-21T09:02:18.760Z,23.43
2017-04-21T09:03:27.811Z,23.46
2017-04-21T09:04:36.858Z,23.46
2017-04-21T09:05:45.927Z,23.48
2017-04-21T09:06:55.006Z,23.44
2017-04-21T09:08:04.094Z,23.4
2017-04-21T09:09:13.495Z,23.39
2017-04-21T09:10:22.270Z,23.39
2017-04-21T09:11:31.752Z,23.46
2017-04-21T09:12:41.222Z,23.44
2017-04-21T09:13:50.270Z,23.48
2017-04-21T09:15:00.269Z,23.44
2017-04-21T09:16:09.138Z,23.44
2017-04-21T09:17:18.144Z,23.37
2017-04-21T09:18:26.875Z,23.43
2017-04-21T09:19:35.944Z,23.48
2017-04-21T09:20:45.221Z,23.5
2017-04-21T09:21:53.948Z,23.44
2017-04-21T09:23:02.745Z,23.46
2017-04-21T09:24:11.788Z,23.46
2017-04-21T09:25:20.795Z,23.47
2017-04-21T09:26:29.535Z,23.37
2017-04-21T09:27:38.623Z,23.37
2017-04-21T09:28:47.439Z,23.4
2017-04-21T09:29:56.829Z,23.46
2017-04-21T09:31:05.911Z,23.31
2017-04-21T09:35:36.420Z,23.41
2017-04-21T09:37:27.353Z,23.39
2017-04-21T09:38:56.079Z,23.34
2017-04-21T09:40:05.046Z,23.39
2017-04-21T09:41:13.860Z,23.39
2017-04-21T09:43:45.677Z,23.4
2017-04-21T09:44:54.445Z,23.43
2017-04-21T09:46:03.486Z,23.41
2017-04-21T09:47:12.223Z,23.43
2017-04-21T09:48:20.992Z,23.46
2017-04-21T09:49:30.065Z,23.48
2017-04-21T09:50:39.438Z,23.46
2017-04-21T09:55:48.170Z,23.47
2017-04-21T10:06:57.002Z,23.65
2017-04-21T10:09:42.318Z,23.68
2017-04-21T10:10:51.702Z,23.58
2017-04-21T10:12:00.521Z,23.65
2017-04-21T10:13:09.641Z,23.71
2017-04-21T10:14:18.682Z,23.68
2017-04-21T10:15:27.750Z,23.59
2017-04-21T10:16:36.510Z,23.65
2017-04-21T10:17:45.303Z,23.61
2017-04-21T10:18:54.640Z,23.62
2017-04-21T10:20:03.376Z,23.69
2017-04-21T10:21:12.758Z,23.54
2017-04-21T10:22:22.097Z,23.69
2017-04-21T10:23:31.720Z,23.62
2017-04-21T10:24:41.363Z,23.65
2017-04-21T10:25:50.704Z,23.54
2017-04-21T10:26:59.742Z,23.61
2017-04-21T10:28:08.770Z,23.65
2017-04-21T10:29:17.784Z,23.71
2017-04-21T10:30:26.786Z,23.76
2017-04-21T10:31:35.835Z,23.8
2017-04-21T10:32:44.631Z,23.86
2017-04-21T10:33:53.706Z,23.95
2017-04-21T10:35:02.475Z,23.98
2017-04-21T10:36:11.255Z,24.03
2017-04-21T10:37:20.016Z,24.54
2017-04-21T10:38:29.391Z,24.84
2017-04-21T10:39:38.768Z,24.84
2017-04-21T10:40:47.531Z,24.88
2017-04-21T10:41:56.310Z,24.86
2017-04-21T10:43:05.386Z,25.18
2017-04-21T10:44:14.782Z,25.65
2017-04-21T10:45:23.841Z,25.81
2017-04-21T10:46:32.608Z,25.93
2017-04-21T10:47:41.683Z,25.77
2017-04-21T10:48:51.086Z,25.75
2017-04-21T10:50:00.774Z,25.78
2017-04-21T10:51:09.846Z,25.73
2017-04-21T10:52:19.393Z,25.63
2017-04-21T10:53:29.301Z,25.55
2017-04-21T10:54:39.331Z,25.58
2017-04-21T10:55:48.034Z,25.58
2017-04-21T10:56:57.052Z,25.55
2017-04-21T10:58:06.360Z,25.68
2017-04-21T10:59:15.066Z,25.62
2017-04-21T11:00:24.386Z,25.54
2017-04-21T11:01:33.699Z,25.59
2017-04-21T11:02:42.702Z,25.75
2017-04-21T11:03:52.464Z,26.09
2017-04-21T11:05:01.163Z,26.73
2017-04-21T11:06:10.163Z,27.15
2017-04-21T11:07:18.859Z,27.89
2017-04-21T11:08:27.558Z,28.49
2017-04-21T11:09:36.565Z,28.94
2017-04-21T11:10:45.878Z,29.2
2017-04-21T11:11:54.889Z,29.17
2017-04-21T11:13:03.946Z,28.97
2017-04-21T11:14:12.959Z,28.75
2017-04-21T11:15:22.881Z,28.47
2017-04-21T11:16:32.429Z,28.23
2017-04-21T11:17:41.795Z,28.56
2017-04-21T11:18:51.016Z,28.94
2017-04-21T11:20:00.157Z,29.07
2017-04-21T11:21:09.092Z,29.2
2017-04-21T11:22:17.800Z,29.5
2017-04-21T11:23:27.187Z,29.56
2017-04-21T11:24:36.197Z,29.63
2017-04-21T11:25:44.902Z,29.47
2017-04-21T11:26:53.646Z,29.31
2017-04-21T11:28:02.721Z,29.14
2017-04-21T11:29:12.057Z,28.96
2017-04-21T11:30:21.108Z,28.89
2017-04-21T11:31:30.482Z,28.84
2017-04-21T11:32:39.868Z,28.54
2017-04-21T11:33:49.203Z,28.32
2017-04-21T11:34:58.221Z,28.22
2017-04-21T11:36:07.563Z,28.08
2017-04-21T11:37:16.335Z,27.98
2017-04-21T11:38:25.564Z,27.92
2017-04-21T11:39:34.693Z,27.92
2017-04-21T11:40:43.497Z,27.85
2017-04-21T11:41:52.261Z,27.86
2017-04-21T11:43:01.020Z,27.85
2017-04-21T11:44:09.809Z,27.77
2017-04-21T11:45:18.958Z,27.71
2017-04-21T11:46:27.727Z,27.59
2017-04-21T11:47:36.495Z,27.63
2017-04-21T11:48:45.267Z,27.52
2017-04-21T11:49:54.648Z,27.36
2017-04-21T11:51:04.026Z,27.22
2017-04-21T11:52:13.111Z,27.25
2017-04-21T11:53:21.823Z,27.05
2017-04-21T11:54:30.868Z,27.11
2017-04-21T11:55:39.936Z,26.99
2017-04-21T11:56:48.711Z,26.92
2017-04-21T11:57:57.738Z,26.81
2017-04-21T11:59:06.791Z,26.74
2017-04-21T12:00:15.863Z,26.71
2017-04-21T12:01:24.930Z,26.68
2017-04-21T12:02:34.618Z,26.53
2017-04-21T12:03:43.384Z,26.45
2017-04-21T12:04:52.119Z,26.47
2017-04-21T12:06:00.819Z,26.37
2017-04-21T12:07:09.562Z,26.34
2017-04-21T12:08:18.886Z,26.33
2017-04-21T12:09:27.896Z,26.33
2017-04-21T12:10:36.938Z,26.16
2017-04-21T12:11:45.721Z,26.18
2017-04-21T12:12:54.799Z,26.1
2017-04-21T12:14:04.181Z,26.06
2017-04-21T12:15:14.157Z,26.02
2017-04-21T12:16:22.929Z,26.03
2017-04-21T12:17:32.312Z,25.96
2017-04-21T12:18:41.692Z,25.93
2017-04-21T12:19:51.076Z,25.91
2017-04-21T12:20:59.843Z,25.9
2017-04-21T12:22:08.923Z,25.78
2017-04-21T12:23:17.697Z,25.88
2017-04-21T12:24:27.037Z,25.87
2017-04-21T12:25:36.352Z,25.85
2017-04-21T12:26:45.118Z,25.73
2017-04-21T12:27:53.889Z,25.75
2017-04-21T12:29:02.973Z,25.8
2017-04-21T12:30:11.755Z,25.73
2017-04-21T12:31:20.521Z,25.77
2017-04-21T12:32:29.601Z,25.7
2017-04-21T12:33:38.974Z,25.8
2017-04-21T12:34:48.030Z,25.73
2017-04-21T12:35:57.959Z,25.62
2017-04-21T12:37:07.085Z,25.66
2017-04-21T12:38:16.157Z,25.6
2017-04-21T12:39:25.537Z,25.68
2017-04-21T12:40:34.933Z,25.55
2017-04-21T12:41:43.709Z,25.62
2017-04-21T12:42:52.789Z,25.66
2017-04-21T12:44:02.166Z,25.58
2017-04-21T12:45:11.194Z,25.63
2017-04-21T12:46:20.257Z,25.55
2017-04-21T12:47:29.939Z,25.54
2017-04-21T12:48:39.029Z,25.54
2017-04-21T12:49:48.389Z,25.51
2017-04-21T12:50:58.079Z,25.41
2017-04-21T12:52:07.463Z,25.38
2017-04-21T12:53:16.497Z,25.41
2017-04-21T12:54:25.851Z,25.43
2017-04-21T12:55:34.921Z,25.47
2017-04-21T12:56:43.684Z,25.38
2017-04-21T12:57:52.771Z,25.38
2017-04-21T12:59:01.842Z,25.44
2017-04-21T13:00:10.922Z,25.4
2017-04-21T13:01:19.693Z,25.4
2017-04-21T13:02:28.421Z,25.38
2017-04-21T13:03:38.070Z,25.32
2017-04-21T13:04:47.441Z,25.36
2017-04-21T13:05:56.510Z,25.32
2017-04-21T13:07:05.594Z,25.41
2017-04-21T13:08:46.750Z,25.29
2017-04-21T13:09:56.861Z,25.35
2017-04-21T13:11:05.944Z,25.26
2017-04-21T13:12:15.327Z,25.29
2017-04-21T13:13:24.402Z,25.26
2017-04-21T13:14:33.175Z,25.21
2017-04-21T13:15:42.819Z,25.32
2017-04-21T13:16:52.499Z,25.28
2017-04-21T13:18:01.564Z,25.18
2017-04-21T13:19:10.342Z,25.25
2017-04-21T13:20:19.414Z,25.23
2017-04-21T13:21:28.188Z,25.26
2017-04-21T13:22:37.057Z,25.21
2017-04-21T13:23:45.824Z,25.23
2017-04-21T13:24:54.851Z,25.21
2017-04-21T13:26:03.901Z,25.21
2017-04-21T13:27:12.677Z,25.18
2017-04-21T13:28:22.053Z,25.14
2017-04-21T13:29:31.699Z,25.16
2017-04-21T13:30:41.056Z,25.21
2017-04-21T13:31:49.795Z,25.17
2017-04-21T13:32:59.147Z,25.16
2017-04-21T13:34:08.224Z,25.13
2017-04-21T13:35:17.291Z,25.07
2017-04-21T13:36:26.364Z,25.18
2017-04-21T13:37:35.439Z,25.06
2017-04-21T13:38:45.115Z,25.06
2017-04-21T13:39:54.804Z,25.04
2017-04-21T13:41:04.170Z,25.04
2017-04-21T13:42:12.935Z,25.06
2017-04-21T13:43:22.308Z,25.06
2017-04-21T13:44:31.073Z,25.07
2017-04-21T13:45:39.840Z,25.07
2017-04-21T13:46:48.604Z,25.07
2017-04-21T13:47:57.990Z,25.04
2017-04-21T13:49:07.675Z,25.08
2017-04-21T13:50:16.750Z,25.08
2017-04-21T13:51:25.519Z,24.99
2017-04-21T13:52:34.545Z,25.03
2017-04-21T13:53:43.628Z,25.08
2017-04-21T13:54:52.403Z,25.01
2017-04-21T13:56:01.483Z,25.11
2017-04-21T13:57:10.277Z,24.99
2017-04-21T13:58:19.050Z,25.03
2017-04-21T13:59:28.125Z,25.18
2017-04-21T14:00:36.893Z,25.03
2017-04-21T14:01:45.690Z,25.14
2017-04-21T14:02:54.441Z,25.07
2017-04-21T14:04:03.180Z,25.06
2017-04-21T14:05:12.246Z,25.07
2017-04-21T14:06:21.319Z,25.04
2017-04-21T14:07:30.089Z,25.1
2017-04-21T14:08:39.142Z,25.01
2017-04-21T14:09:48.489Z,25.06
2017-04-21T14:10:57.871Z,25.1
2017-04-21T14:12:06.918Z,25.04
2017-04-21T14:13:15.641Z,25.07
2017-04-21T14:14:25.038Z,25.01
2017-04-21T14:15:34.095Z,25.06
2017-04-21T14:16:42.874Z,25.06
2017-04-21T14:17:51.919Z,25.03
2017-04-21T14:19:00.958Z,25.14
2017-04-21T14:20:09.718Z,25.07
2017-04-21T14:21:18.460Z,25.17
2017-04-21T14:22:27.522Z,25.14
2017-04-21T14:23:37.100Z,25.16
2017-04-21T14:24:46.182Z,25.23
2017-04-21T14:25:54.960Z,25.16
2017-04-21T14:27:04.032Z,25.16
2017-04-21T14:28:13.102Z,25.16
2017-04-21T14:29:22.479Z,25.14
2017-04-21T14:30:31.548Z,25.13
2017-04-21T14:31:40.322Z,25.21
2017-04-21T14:32:49.090Z,25.06
2017-04-21T14:33:58.469Z,25.11
2017-04-21T14:35:07.195Z,25.13
2017-04-21T14:36:16.238Z,25.06
2017-04-21T14:37:24.996Z,25.1
2017-04-21T14:38:34.648Z,25.11
2017-04-21T14:39:43.718Z,25.06
2017-04-21T14:40:52.480Z,25.07
2017-04-21T14:42:01.895Z,25.06
2017-04-21T14:43:10.958Z,25.07
2017-04-21T14:44:20.044Z,25.04
2017-04-21T14:45:28.813Z,25.06
2017-04-21T14:46:37.582Z,25.01
2017-04-21T14:47:46.970Z,24.96
2017-04-21T14:48:56.536Z,25.04
2017-04-21T14:50:05.386Z,25.04
2017-04-21T14:51:14.253Z,25.03
2017-04-21T14:52:23.336Z,25.01
2017-04-21T14:53:32.813Z,24.95
2017-04-21T14:54:42.056Z,24.89
2017-04-21T14:55:51.300Z,24.91
2017-04-21T14:57:00.067Z,24.86
2017-04-21T14:58:08.834Z,24.88
2017-04-21T14:59:18.788Z,24.93
2017-04-21T15:00:28.241Z,24.89
2017-04-21T15:01:37.367Z,24.84
2017-04-21T15:02:46.129Z,24.84
2017-04-21T15:03:55.613Z,24.65
2017-04-21T15:05:04.692Z,24.77
2017-04-21T15:06:13.455Z,24.69
2017-04-21T15:07:22.218Z,24.7
2017-04-21T15:08:31.293Z,24.7
2017-04-21T15:09:40.977Z,24.73
2017-04-21T15:10:50.015Z,24.68
2017-04-21T15:11:58.760Z,24.74
2017-04-21T15:13:07.489Z,24.68
2017-04-21T15:14:16.226Z,24.65
2017-04-21T15:15:24.993Z,24.57
2017-04-21T15:16:34.068Z,24.65